Time;durP1;ratioP1;P1;durP2;ratioP2;P2;SDS_P1;SDS_P2;PMS_P1;PMS_P2;Temp;Humidity;BMP_temperature;BMP_pressure;BME280_temperature;BME280_humidity;BME280_pressure;Samples;Min_cycle;Max_cycle;Signal;HPM_P1;HPM_P2
2022/01/23 00:01:32;;;;;;;2.05;0.57;;;25.40;99.90;;;;;;5088786;28;20422;-81
2022/01/23 00:03:59;;;;;;;1.75;0.60;;;25.30;99.90;;;;;;5088365;28;20452;-80
2022/01/23 00:06:26;;;;;;;1.30;0.43;;;25.20;99.90;;;;;;5088578;28;20372;-80
2022/01/23 00:08:53;;;;;;;2.33;0.55;;;25.40;99.90;;;;;;5088527;28;20893;-79
2022/01/23 00:11:25;;;;;;;1.58;0.50;;;25.70;99.90;;;;;;5088395;28;20441;-79
2022/01/23 00:19:13;;;;;;;3.90;0.50;;;26.10;99.50;;;;;;5087999;28;20398;-80
2022/01/23 00:21:41;;;;;;;2.22;0.60;;;26.10;97.90;;;;;;5088271;28;20377;-80
2022/01/23 00:32:08;;;;;;;1.73;0.53;;;26.70;96.30;;;;;;5088525;28;20434;-79
2022/01/23 00:34:36;;;;;;;2.75;0.60;;;26.60;95.30;;;;;;5088142;28;20372;-80
2022/01/23 00:37:03;;;;;;;1.77;0.50;;;26.60;93.60;;;;;;5088131;28;20380;-80
2022/01/23 00:39:30;;;;;;;2.10;0.40;;;26.60;92.70;;;;;;5088375;28;20377;-81
2022/01/23 00:41:57;;;;;;;2.80;0.50;;;26.80;93.00;;;;;;5087914;28;20509;-80
2022/01/23 00:44:26;;;;;;;1.98;0.50;;;27.10;92.20;;;;;;5088099;28;20372;-80
2022/01/23 00:46:53;;;;;;;1.13;0.47;;;27.30;91.90;;;;;;5087111;28;20376;-82
2022/01/23 00:49:29;;;;;;;1.10;0.50;;;27.60;92.20;;;;;;5087983;28;20387;-82
2022/01/23 00:51:56;;;;;;;1.88;0.50;;;27.80;91.80;;;;;;5088579;28;20385;-80
2022/01/23 00:54:25;;;;;;;2.10;0.50;;;28.10;83.20;;;;;;5087999;28;20384;-80
2022/01/23 00:56:52;;;;;;;1.67;0.40;;;27.90;84.90;;;;;;5088033;28;20364;-81
2022/01/23 00:59:19;;;;;;;1.55;0.40;;;28.10;87.20;;;;;;5088030;28;20376;-79
2022/01/23 01:01:46;;;;;;;2.40;0.57;;;28.60;86.30;;;;;;5088078;28;20369;-81
2022/01/23 01:04:13;;;;;;;0.85;0.40;;;28.60;81.60;;;;;;5087837;28;20377;-79
2022/01/23 01:06:40;;;;;;;1.60;0.50;;;28.30;81.50;;;;;;5088018;28;20852;-80
2022/01/23 01:09:09;;;;;;;1.17;0.47;;;28.00;83.20;;;;;;5088107;28;20561;-81
2022/01/23 01:12:16;;;;;;;1.65;0.57;;;28.20;83.50;;;;;;5087792;28;20395;-81
2022/01/23 01:14:41;;;;;;;1.30;0.50;;;28.70;80.80;;;;;;5086481;28;20380;-80
2022/01/23 01:33:55;;;;;;;2.83;0.60;;;27.40;84.80;;;;;;5091582;28;20530;-82
2022/01/23 01:36:28;;;;;;;2.83;0.57;;;27.40;85.20;;;;;;5091404;28;20824;-81
2022/01/23 01:38:56;;;;;;;1.23;0.50;;;27.40;84.10;;;;;;5091436;28;20446;-82
2022/01/23 01:41:23;;;;;;;1.58;0.57;;;27.40;84.80;;;;;;5091226;28;20450;-82
2022/01/23 01:43:52;;;;;;;2.03;0.65;;;27.20;86.40;;;;;;5091307;28;20892;-82
2022/01/23 01:46:19;;;;;;;3.05;1.50;;;27.20;86.60;;;;;;5091238;28;20915;-82
2022/01/23 01:48:47;;;;;;;2.20;0.90;;;27.10;86.10;;;;;;5091657;28;20848;-82
2022/01/23 01:51:16;;;;;;;2.30;0.70;;;27.10;87.50;;;;;;5091210;28;20395;-81
2022/01/23 01:53:50;;;;;;;1.30;0.50;;;27.20;83.70;;;;;;5091081;28;20372;-82
2022/01/23 01:56:18;;;;;;;1.50;0.50;;;27.10;84.90;;;;;;5091027;28;20449;-81
2022/01/23 01:59:10;;;;;;;1.80;0.50;;;27.20;82.70;;;;;;5091155;28;20947;-83
2022/01/23 02:09:33;;;;;;;2.03;0.80;;;27.20;89.80;;;;;;5091234;28;20402;-87
2022/01/23 02:22:57;;;;;;;3.88;0.95;;;25.70;93.70;;;;;;5091160;28;20421;-88
2022/01/23 02:50:31;;;;;;;2.17;0.90;;;25.60;93.10;;;;;;5090547;28;20360;-87
2022/01/23 02:55:48;;;;;;;2.88;0.60;;;30.10;74.60;;;;;;5091513;28;20823;-90
2022/01/23 02:58:21;;;;;;;0.90;0.50;;;30.30;71.70;;;;;;5090043;28;20521;-90
2022/01/23 03:01:01;;;;;;;1.15;0.50;;;30.40;72.50;;;;;;5097915;28;20404;-89
2022/01/23 03:03:28;;;;;;;1.58;0.50;;;31.00;71.60;;;;;;5092281;28;20376;-89
2022/01/23 03:09:50;;;;;;;0.90;0.47;;;31.40;66.60;;;;;;5092690;28;20826;-80
2022/01/23 03:14:17;;;;;;;2.28;0.50;;;31.50;64.70;;;;;;5089868;28;20381;-81
2022/01/23 03:25:27;;;;;;;2.53;0.68;;;29.20;76.00;;;;;;5091315;28;20418;-86
2022/01/23 03:28:16;;;;;;;1.38;0.68;;;29.60;72.90;;;;;;5093695;28;20380;-90
2022/01/23 03:30:52;;;;;;;1.40;0.70;;;29.90;72.00;;;;;;5100995;28;20433;-83
2022/01/23 03:33:20;;;;;;;1.77;0.60;;;30.10;69.60;;;;;;5096174;28;20399;-93
2022/01/23 03:35:47;;;;;;;1.08;0.40;;;30.20;67.10;;;;;;5096601;28;20407;-93
2022/01/23 03:38:14;;;;;;;1.48;0.40;;;29.80;68.80;;;;;;5089878;28;20384;-87
2022/01/23 03:40:41;;;;;;;1.70;0.40;;;29.50;69.70;;;;;;5089659;28;20369;-82
2022/01/23 03:43:10;;;;;;;1.55;0.50;;;29.40;70.80;;;;;;5091537;28;20383;-86
2022/01/23 03:50:53;;;;;;;1.83;0.60;;;29.00;72.20;;;;;;5090482;28;20369;-93
2022/01/23 03:53:20;;;;;;;3.70;0.60;;;28.90;72.30;;;;;;5092117;28;20420;-87
2022/01/23 03:55:50;;;;;;;1.27;0.50;;;29.00;71.50;;;;;;5091029;28;20368;-89
2022/01/23 03:58:17;;;;;;;1.50;0.60;;;29.80;71.30;;;;;;5091156;28;20429;-89
2022/01/23 04:00:44;;;;;;;1.45;0.60;;;30.20;69.20;;;;;;5094961;28;20385;-87
2022/01/23 04:03:12;;;;;;;1.60;0.50;;;30.10;69.50;;;;;;5101153;28;20407;-87
2022/01/23 04:05:39;;;;;;;1.45;0.80;;;29.90;69.50;;;;;;5105269;28;20375;-88
2022/01/23 04:08:06;;;;;;;1.65;0.80;;;29.50;69.30;;;;;;5104653;28;20891;-89
2022/01/23 04:10:33;;;;;;;1.80;1.10;;;29.20;69.40;;;;;;5101392;28;20912;-91
2022/01/23 04:13:17;;;;;;;2.47;1.00;;;28.90;70.90;;;;;;5091372;28;20760;-92
2022/01/23 04:15:48;;;;;;;2.45;0.90;;;28.70;71.90;;;;;;5091737;28;20357;-95
2022/01/23 04:31:41;;;;;;;1.38;0.80;;;28.00;73.90;;;;;;5090967;28;20360;-90
2022/01/23 04:35:29;;;;;;;0.90;0.57;;;28.60;72.20;;;;;;5089371;28;20364;-92
2022/01/23 04:46:31;;;;;;;1.10;0.43;;;30.10;67.70;;;;;;5090129;28;20389;-82
2022/01/23 04:59:32;;;;;;;1.02;0.40;;;29.90;69.40;;;;;;5089199;28;20376;-90
2022/01/23 05:00:04;;;;;;;1.90;0.50;;;29.70;66.40;;;;;;5088675;28;20363;-83
2022/01/23 05:05:01;;;;;;;1.63;0.50;;;29.80;68.50;;;;;;5089165;28;20444;-92
2022/01/23 05:07:29;;;;;;;0.90;0.40;;;30.10;68.40;;;;;;5093030;28;20380;-91
2022/01/23 05:09:56;;;;;;;0.93;0.40;;;30.40;65.50;;;;;;5097746;28;20369;-84
2022/01/23 05:12:28;;;;;;;0.90;0.47;;;30.20;65.80;;;;;;5092785;28;20392;-88
2022/01/23 05:14:55;;;;;;;1.52;0.60;;;29.70;66.60;;;;;;5092621;28;20376;-86
2022/01/23 05:17:22;;;;;;;1.30;0.60;;;29.30;68.90;;;;;;5092281;28;20373;-83
2022/01/23 05:19:49;;;;;;;0.80;0.52;;;29.10;71.80;;;;;;5092099;28;20371;-85
2022/01/23 05:22:34;;;;;;;0.55;0.50;;;30.40;70.00;;;;;;5092054;28;20458;-88
2022/01/23 05:25:10;;;;;;;0.90;0.50;;;31.90;66.60;;;;;;5092483;28;20384;-87
2022/01/23 05:27:37;;;;;;;0.95;0.60;;;32.30;63.00;;;;;;5091886;28;20422;-83
2022/01/23 05:30:05;;;;;;;1.60;0.55;;;32.00;60.70;;;;;;5091659;28;20455;-90
2022/01/23 05:32:37;;;;;;;1.00;0.50;;;32.20;62.30;;;;;;5091636;28;20399;-89
2022/01/23 05:35:05;;;;;;;1.20;0.50;;;32.70;61.60;;;;;;5091788;28;20861;-87
2022/01/23 05:37:37;;;;;;;0.57;0.50;;;33.40;59.10;;;;;;5091935;28;20856;-86
2022/01/23 05:40:05;;;;;;;1.10;0.50;;;33.90;56.30;;;;;;5092029;28;20376;-89
2022/01/23 05:42:32;;;;;;;1.13;0.50;;;33.90;56.40;;;;;;5091397;28;20396;-88
2022/01/23 05:44:59;;;;;;;0.60;0.40;;;34.30;55.60;;;;;;5091514;28;20832;-89
2022/01/23 05:47:26;;;;;;;0.83;0.33;;;34.80;54.40;;;;;;5091294;28;20384;-90
2022/01/23 05:49:53;;;;;;;1.70;0.50;;;35.10;53.90;;;;;;5091388;28;20378;-89
2022/01/23 05:52:20;;;;;;;0.65;0.43;;;34.60;53.70;;;;;;5091291;28;20385;-88
2022/01/23 05:54:47;;;;;;;0.95;0.50;;;33.90;54.70;;;;;;5091254;28;20404;-83
2022/01/23 05:57:14;;;;;;;0.95;0.60;;;32.90;55.80;;;;;;5091124;28;20419;-85
2022/01/23 05:59:41;;;;;;;1.60;0.50;;;31.40;59.30;;;;;;5091068;28;20381;-83
2022/01/23 06:02:09;;;;;;;0.77;0.40;;;31.30;62.00;;;;;;5091013;28;20443;-86
2022/01/23 06:04:35;;;;;;;1.92;0.57;;;32.10;61.10;;;;;;5090914;28;20373;-89
2022/01/23 06:07:03;;;;;;;1.67;0.50;;;32.50;57.90;;;;;;5091340;28;20438;-88
2022/01/23 06:09:30;;;;;;;1.15;0.55;;;32.90;58.30;;;;;;5090933;28;20411;-88
2022/01/23 06:11:57;;;;;;;1.73;0.40;;;32.80;57.30;;;;;;5091078;28;20771;-88
2022/01/23 06:14:26;;;;;;;1.02;0.40;;;32.20;58.20;;;;;;5090978;28;20372;-89
2022/01/23 06:16:53;;;;;;;0.70;0.40;;;31.80;59.80;;;;;;5090340;28;20447;-89
2022/01/23 06:19:20;;;;;;;1.83;0.50;;;31.30;59.00;;;;;;5091894;28;20380;-89
2022/01/23 06:21:47;;;;;;;0.60;0.40;;;30.90;61.40;;;;;;5091450;28;20376;-86
2022/01/23 06:24:23;;;;;;;1.98;0.57;;;31.80;58.50;;;;;;5097558;28;20372;-89
2022/01/23 06:26:56;;;;;;;1.60;0.40;;;32.70;56.80;;;;;;5090997;28;20780;-89
2022/01/23 06:29:25;;;;;;;1.85;0.52;;;33.20;56.50;;;;;;5090724;28;20440;-86
2022/01/23 06:31:58;;;;;;;1.38;0.45;;;33.60;54.60;;;;;;5090291;28;20391;-87
2022/01/23 06:34:25;;;;;;;1.13;0.50;;;33.80;54.00;;;;;;5090723;28;20443;-89
2022/01/23 06:36:53;;;;;;;0.70;0.40;;;34.00;53.60;;;;;;5090801;28;20445;-84
2022/01/23 06:39:22;;;;;;;1.40;0.60;;;33.80;53.70;;;;;;5090506;28;20375;-83
2022/01/23 06:41:49;;;;;;;1.50;0.50;;;33.40;54.10;;;;;;5090322;28;20752;-85
2022/01/23 06:44:16;;;;;;;1.07;0.60;;;32.40;55.80;;;;;;5090554;28;20395;-87
2022/01/23 06:46:44;;;;;;;0.85;0.40;;;31.30;58.40;;;;;;5090163;28;20737;-84
2022/01/23 06:49:11;;;;;;;0.80;0.50;;;30.70;59.40;;;;;;5093699;28;20369;-86
2022/01/23 06:51:39;;;;;;;1.35;0.52;;;30.30;60.20;;;;;;5090079;28;20447;-88
2022/01/23 06:54:06;;;;;;;0.90;0.50;;;29.70;62.00;;;;;;5090479;28;20470;-88
2022/01/23 06:56:34;;;;;;;0.80;0.40;;;29.40;63.10;;;;;;5088681;28;20789;-88
2022/01/23 06:59:00;;;;;;;2.47;0.60;;;29.20;64.50;;;;;;5090331;28;20400;-87
2022/01/23 07:01:27;;;;;;;1.10;0.50;;;28.90;65.30;;;;;;5089775;28;20826;-91
2022/01/23 07:03:54;;;;;;;0.90;0.50;;;28.70;65.70;;;;;;5090060;28;20387;-87
2022/01/23 07:06:21;;;;;;;1.40;0.57;;;28.40;67.10;;;;;;5089596;28;20368;-88
2022/01/23 07:08:48;;;;;;;2.78;0.60;;;28.00;69.60;;;;;;5090144;28;20844;-91
2022/01/23 07:11:15;;;;;;;2.53;0.52;;;27.80;70.20;;;;;;5089607;28;20434;-90
2022/01/23 07:13:42;;;;;;;0.80;0.40;;;27.60;71.60;;;;;;5089422;28;20432;-89
2022/01/23 07:16:09;;;;;;;2.03;0.82;;;27.80;70.90;;;;;;5089515;28;20400;-87
2022/01/23 07:18:36;;;;;;;2.43;1.70;;;28.20;70.20;;;;;;5089927;28;20717;-86
2022/01/23 07:21:03;;;;;;;1.40;0.50;;;28.60;68.10;;;;;;5089739;28;20430;-89
2022/01/23 07:23:30;;;;;;;2.50;1.80;;;28.70;68.20;;;;;;5092193;28;20411;-89
2022/01/23 07:25:59;;;;;;;1.60;1.10;;;28.40;69.00;;;;;;5089853;28;20376;-91
2022/01/23 07:28:36;;;;;;;1.25;0.60;;;28.10;70.40;;;;;;5089307;28;20392;-90
2022/01/23 07:31:06;;;;;;;1.23;0.60;;;27.60;73.00;;;;;;5089458;28;20376;-90
2022/01/23 07:33:35;;;;;;;5.17;1.90;;;27.30;74.30;;;;;;5089498;28;20868;-88
2022/01/23 07:36:04;;;;;;;2.00;0.85;;;27.10;75.90;;;;;;5089569;28;20369;-89
2022/01/23 07:38:31;;;;;;;2.45;0.90;;;26.80;77.10;;;;;;5089573;28;20376;-89
2022/01/23 07:40:59;;;;;;;1.65;0.60;;;26.60;79.40;;;;;;5089431;28;20510;-89
2022/01/23 07:43:26;;;;;;;3.92;0.60;;;26.30;80.00;;;;;;5089680;28;20384;-89
2022/01/23 07:45:53;;;;;;;1.85;0.60;;;26.20;79.90;;;;;;5091098;28;20371;-83
2022/01/23 07:48:20;;;;;;;2.47;0.63;;;26.20;80.10;;;;;;5089427;28;20373;-93
2022/01/23 07:50:46;;;;;;;1.40;0.60;;;26.10;80.10;;;;;;5089067;28;20369;-90
2022/01/23 07:53:13;;;;;;;1.23;0.43;;;25.90;79.80;;;;;;5089362;28;20399;-89
2022/01/23 07:55:40;;;;;;;2.15;0.55;;;25.80;79.70;;;;;;5089757;28;20855;-84
2022/01/23 07:58:12;;;;;;;1.52;0.40;;;25.70;79.20;;;;;;5089474;28;20463;-89
2022/01/23 08:00:41;;;;;;;0.82;0.45;;;25.70;79.20;;;;;;5089852;28;20357;-89
2022/01/23 08:03:09;;;;;;;1.50;0.50;;;25.70;80.00;;;;;;5089244;28;20396;-84
2022/01/23 08:05:36;;;;;;;2.08;0.40;;;26.20;79.30;;;;;;5089083;28;20385;-80
2022/01/23 08:08:04;;;;;;;1.20;0.57;;;27.10;75.60;;;;;;5088697;28;20373;-87
2022/01/23 08:10:31;;;;;;;2.38;0.70;;;27.80;73.20;;;;;;5088953;28;20386;-91
2022/01/23 08:12:58;;;;;;;0.70;0.43;;;28.20;72.20;;;;;;5088674;28;20879;-93
2022/01/23 08:15:26;;;;;;;0.77;0.50;;;28.50;69.10;;;;;;5089722;28;20368;-89
2022/01/23 08:17:53;;;;;;;2.00;0.50;;;28.50;69.20;;;;;;5088980;28;20388;-87
2022/01/23 08:20:21;;;;;;;0.77;0.43;;;28.30;69.40;;;;;;5088620;28;20460;-86
2022/01/23 08:22:48;;;;;;;1.30;0.52;;;28.00;69.70;;;;;;5088666;28;20380;-90
2022/01/23 08:25:15;;;;;;;1.75;0.50;;;27.30;71.80;;;;;;5088841;28;20753;-89
2022/01/23 08:27:41;;;;;;;1.15;0.50;;;26.70;73.70;;;;;;5090438;28;20413;-91
2022/01/23 08:30:09;;;;;;;3.10;0.57;;;26.20;76.30;;;;;;5089557;28;20777;-89
2022/01/23 08:32:36;;;;;;;2.67;0.60;;;25.70;77.90;;;;;;5092016;28;20388;-89
2022/01/23 08:35:06;;;;;;;1.55;0.60;;;25.30;79.40;;;;;;5089757;28;20392;-90
2022/01/23 08:37:33;;;;;;;1.63;0.50;;;25.00;81.00;;;;;;5091270;28;20452;-92
2022/01/23 08:40:00;;;;;;;1.27;0.43;;;24.70;82.50;;;;;;5093173;28;20800;-91
2022/01/23 08:42:28;;;;;;;1.35;0.40;;;24.40;83.50;;;;;;5098981;28;20396;-87
2022/01/23 08:44:55;;;;;;;1.52;0.50;;;24.20;84.10;;;;;;5103635;28;20368;-91
2022/01/23 08:47:23;;;;;;;1.55;0.40;;;24.10;85.60;;;;;;5100594;28;20375;-87
2022/01/23 08:49:50;;;;;;;1.20;0.40;;;23.90;87.10;;;;;;5100440;28;20369;-90
2022/01/23 08:52:19;;;;;;;1.30;0.52;;;23.90;88.30;;;;;;5100385;28;20875;-83
2022/01/23 08:54:50;;;;;;;1.20;0.50;;;23.70;89.80;;;;;;5095360;28;20409;-93
2022/01/23 08:57:19;;;;;;;1.23;0.60;;;23.70;90.50;;;;;;5093051;28;20360;-89
2022/01/23 08:59:47;;;;;;;1.20;0.60;;;23.60;91.40;;;;;;5096975;28;20404;-90
2022/01/23 09:02:14;;;;;;;2.08;0.60;;;23.50;92.30;;;;;;5092577;28;20364;-88
2022/01/23 09:04:42;;;;;;;1.60;0.57;;;23.40;93.30;;;;;;5092909;28;20430;-90
2022/01/23 09:07:10;;;;;;;1.02;0.50;;;23.30;94.20;;;;;;5092852;28;20364;-92
2022/01/23 09:09:39;;;;;;;2.43;0.60;;;23.30;95.10;;;;;;5091021;28;20399;-88
2022/01/23 09:14:56;;;;;;;2.30;0.70;;;23.20;96.40;;;;;;5093301;28;20379;-93
2022/01/23 09:17:23;;;;;;;1.58;0.60;;;23.10;97.10;;;;;;5091692;28;20368;-89
2022/01/23 09:19:51;;;;;;;3.42;0.60;;;23.10;98.00;;;;;;5092585;28;20395;-90
2022/01/23 09:22:18;;;;;;;1.73;0.60;;;23.00;98.10;;;;;;5092924;28;20382;-93
2022/01/23 09:24:45;;;;;;;2.70;0.60;;;23.00;98.40;;;;;;5092501;28;20373;-89
2022/01/23 09:27:19;;;;;;;3.37;0.90;;;23.00;98.90;;;;;;5092193;28;20368;-92
2022/01/23 09:29:52;;;;;;;2.28;0.70;;;22.90;99.10;;;;;;5091562;28;20373;-91
2022/01/23 09:32:23;;;;;;;2.40;0.80;;;22.90;99.50;;;;;;5091819;28;20423;-91
2022/01/23 09:34:51;;;;;;;2.65;0.60;;;22.90;99.90;;;;;;5092380;28;20417;-91
2022/01/23 09:37:20;;;;;;;2.10;0.75;;;22.90;99.90;;;;;;5092214;28;20418;-91
2022/01/23 09:39:51;;;;;;;3.97;1.50;;;23.00;99.90;;;;;;5092671;28;20375;-92
2022/01/23 09:42:26;;;;;;;1.63;0.70;;;22.90;99.90;;;;;;5092451;28;20958;-90
2022/01/23 09:44:58;;;;;;;2.15;0.75;;;22.90;99.90;;;;;;5092158;28;20394;-91
2022/01/23 09:47:26;;;;;;;1.67;0.80;;;22.80;99.90;;;;;;5092841;28;20369;-94
2022/01/23 09:49:55;;;;;;;2.75;1.02;;;22.70;99.90;;;;;;5092005;28;20430;-85
2022/01/23 09:52:23;;;;;;;2.47;1.13;;;22.60;99.90;;;;;;5091809;28;20402;-85
2022/01/23 09:55:00;;;;;;;2.63;0.90;;;22.50;99.90;;;;;;5092457;28;20387;-91
2022/01/23 09:57:32;;;;;;;3.25;1.10;;;22.50;99.90;;;;;;5091519;28;20377;-91
2022/01/23 10:00:04;;;;;;;4.90;1.70;;;22.50;99.90;;;;;;5092493;28;20859;-90
2022/01/23 10:02:31;;;;;;;5.38;2.80;;;22.50;99.90;;;;;;5094868;28;20701;-85
2022/01/23 10:04:58;;;;;;;5.68;2.33;;;22.40;99.90;;;;;;5092849;28;20449;-91
2022/01/23 10:07:26;;;;;;;2.63;1.38;;;22.50;99.90;;;;;;5091885;28;20848;-83
2022/01/23 10:10:03;;;;;;;3.77;1.30;;;22.50;99.90;;;;;;5095918;28;20856;-90
2022/01/23 10:12:30;;;;;;;3.35;0.93;;;22.50;99.90;;;;;;5099852;28;20396;-90
2022/01/23 10:14:57;;;;;;;4.80;1.00;;;22.50;99.90;;;;;;5101070;28;20393;-86
2022/01/23 10:17:24;;;;;;;3.73;1.00;;;22.40;99.90;;;;;;5099637;28;20408;-89
2022/01/23 10:19:51;;;;;;;3.72;0.85;;;22.40;99.90;;;;;;5092879;28;20383;-88
2022/01/23 10:22:19;;;;;;;3.42;0.93;;;22.40;99.90;;;;;;5095348;28;20545;-92
2022/01/23 10:24:46;;;;;;;3.30;0.80;;;22.30;99.90;;;;;;5092470;28;20400;-82
2022/01/23 10:27:13;;;;;;;4.37;0.90;;;22.20;99.90;;;;;;5093635;28;20434;-90
2022/01/23 10:29:44;;;;;;;3.30;0.70;;;22.20;99.90;;;;;;5092471;28;20431;-91
2022/01/23 10:32:25;;;;;;;2.70;1.00;;;22.10;99.90;;;;;;5091419;28;20400;-87
2022/01/23 10:35:01;;;;;;;2.20;0.70;;;22.10;99.90;;;;;;5090936;28;20852;-91
2022/01/23 10:37:41;;;;;;;2.33;0.80;;;22.10;99.90;;;;;;5091025;28;20877;-94
2022/01/23 10:40:32;;;;;;;2.28;0.70;;;22.10;99.90;;;;;;5091613;28;20732;-89
2022/01/23 10:48:40;;;;;;;2.50;0.67;;;21.80;99.90;;;;;;5090780;28;20916;-89
2022/01/23 10:51:36;;;;;;;1.13;0.50;;;21.70;99.90;;;;;;5091225;28;20384;-87
2022/01/23 10:54:06;;;;;;;1.40;0.60;;;21.70;99.90;;;;;;5082607;28;20393;-89
2022/01/23 10:56:55;;;;;;;2.50;0.70;;;21.70;99.90;;;;;;5093005;28;20373;-88
2022/01/23 10:59:23;;;;;;;3.60;0.77;;;21.80;99.90;;;;;;5092083;28;20464;-88
2022/01/23 11:02:12;;;;;;;1.73;0.70;;;21.80;99.90;;;;;;5105724;28;20394;-84
2022/01/23 11:04:59;;;;;;;2.47;0.70;;;21.70;99.90;;;;;;5098200;28;20401;-90
2022/01/23 11:11:00;;;;;;;2.10;0.70;;;21.80;99.90;;;;;;5090463;28;20413;-83
2022/01/23 11:19:35;;;;;;;2.75;0.60;;;21.80;99.90;;;;;;5090647;28;20372;-90
2022/01/23 11:22:05;;;;;;;2.20;0.50;;;21.70;99.90;;;;;;5090191;28;20372;-93
2022/01/23 11:24:45;;;;;;;1.50;0.50;;;21.60;99.90;;;;;;5089995;28;20375;-88
2022/01/23 11:27:13;;;;;;;1.57;0.57;;;21.50;99.90;;;;;;5088532;28;20418;-91
2022/01/23 11:30:00;;;;;;;1.52;0.47;;;21.40;99.90;;;;;;5089715;28;20377;-89
2022/01/23 11:32:34;;;;;;;1.15;0.60;;;21.30;99.90;;;;;;5090520;28;20404;-89
2022/01/23 11:35:07;;;;;;;2.10;0.65;;;21.10;99.90;;;;;;5089467;28;20382;-88
2022/01/23 11:37:35;;;;;;;2.60;0.80;;;21.10;99.90;;;;;;5089351;28;20380;-87
2022/01/23 11:40:09;;;;;;;2.40;0.60;;;21.00;99.90;;;;;;5090270;28;20372;-89
2022/01/23 11:56:40;;;;;;;2.13;0.60;;;20.70;99.90;;;;;;5089527;28;20405;-80
2022/01/23 11:59:15;;;;;;;2.37;0.60;;;20.60;99.90;;;;;;5089561;28;20399;-90
2022/01/23 12:01:45;;;;;;;2.00;0.50;;;20.60;99.90;;;;;;5089332;28;20406;-90
2022/01/23 12:07:15;;;;;;;1.65;0.60;;;20.60;99.90;;;;;;5089106;28;20364;-89
2022/01/23 12:10:14;;;;;;;1.67;0.60;;;20.50;99.90;;;;;;5088709;28;20372;-86
2022/01/23 12:12:45;;;;;;;2.00;0.50;;;20.30;99.90;;;;;;5089254;28;20400;-89
2022/01/23 12:18:16;;;;;;;1.98;0.70;;;20.40;99.90;;;;;;5089284;28;20370;-90
2022/01/23 12:20:45;;;;;;;2.50;0.70;;;20.40;99.90;;;;;;5087830;28;20383;-88
2022/01/23 12:23:14;;;;;;;2.07;0.70;;;20.50;99.90;;;;;;5088687;28;20395;-79
2022/01/23 12:25:50;;;;;;;1.63;0.70;;;20.60;99.90;;;;;;5088736;28;20376;-90
2022/01/23 12:28:28;;;;;;;1.50;0.60;;;20.60;99.90;;;;;;5088737;28;20365;-82
2022/01/23 12:31:15;;;;;;;2.20;0.60;;;20.50;99.90;;;;;;5088578;28;20402;-89
2022/01/23 12:33:42;;;;;;;2.35;0.52;;;20.30;99.90;;;;;;5082708;28;20402;-81
2022/01/23 12:36:25;;;;;;;2.08;0.60;;;20.10;99.90;;;;;;5088554;28;20368;-84
2022/01/23 12:38:58;;;;;;;2.70;0.60;;;20.10;99.90;;;;;;5088353;28;20372;-83
2022/01/23 12:41:30;;;;;;;3.50;0.70;;;20.10;99.90;;;;;;5088368;28;20388;-91
2022/01/23 12:44:01;;;;;;;1.30;0.50;;;20.10;99.90;;;;;;5087144;28;20759;-84
2022/01/23 12:46:35;;;;;;;1.75;0.65;;;20.20;99.90;;;;;;5088466;28;20774;-91
2022/01/23 12:49:20;;;;;;;1.88;0.70;;;20.30;99.90;;;;;;5088658;28;20361;-86
2022/01/23 12:52:12;;;;;;;1.70;0.60;;;20.30;99.90;;;;;;5088865;28;20783;-88
2022/01/23 12:54:52;;;;;;;2.15;0.60;;;20.30;99.90;;;;;;5087398;28;20725;-80
2022/01/23 12:57:38;;;;;;;3.00;0.70;;;20.20;99.90;;;;;;5088353;28;20731;-90
2022/01/23 13:00:15;;;;;;;1.65;0.55;;;20.30;99.90;;;;;;5088613;28;20379;-82
2022/01/23 13:02:46;;;;;;;1.23;0.50;;;20.50;99.90;;;;;;5088409;28;20722;-86
2022/01/23 13:05:15;;;;;;;1.85;0.70;;;20.60;99.90;;;;;;5088519;28;20405;-79
2022/01/23 13:08:02;;;;;;;3.03;0.80;;;20.70;99.90;;;;;;5088241;28;20376;-87
2022/01/23 13:16:20;;;;;;;1.95;1.05;;;20.80;99.90;;;;;;5088443;28;20369;-92
2022/01/23 13:30:31;;;;;;;3.72;1.00;;;19.80;99.90;;;;;;5086919;28;20451;-86
2022/01/23 13:33:08;;;;;;;4.82;0.93;;;19.70;99.90;;;;;;5092364;28;20439;-92
2022/01/23 13:35:41;;;;;;;3.97;0.90;;;19.50;99.90;;;;;;5092048;28;20384;-89
2022/01/23 13:38:15;;;;;;;2.50;0.80;;;19.50;99.90;;;;;;5092157;28;20369;-82
2022/01/23 13:40:43;;;;;;;2.75;1.10;;;19.40;99.90;;;;;;5091521;28;20372;-80
2022/01/23 13:57:32;;;;;;;2.47;0.80;;;19.00;99.90;;;;;;5090881;28;20410;-87
2022/01/23 14:00:01;;;;;;;1.90;0.80;;;19.00;99.90;;;;;;5091637;28;20436;-80
2022/01/23 14:02:37;;;;;;;2.05;0.80;;;18.90;99.90;;;;;;5091422;28;20376;-82
2022/01/23 14:05:13;;;;;;;2.60;0.80;;;18.90;99.90;;;;;;5091853;28;20417;-84
2022/01/23 14:07:45;;;;;;;2.83;0.70;;;18.90;99.90;;;;;;5090968;28;20418;-84
2022/01/23 14:10:13;;;;;;;1.90;0.70;;;18.90;99.90;;;;;;5091039;28;20452;-83
2022/01/23 14:12:40;;;;;;;2.30;0.80;;;18.90;99.90;;;;;;5091156;28;20384;-81
2022/01/23 14:15:16;;;;;;;2.47;0.80;;;18.90;99.90;;;;;;5091174;28;20463;-84
2022/01/23 14:18:05;;;;;;;4.32;0.77;;;18.90;99.90;;;;;;5091342;28;20511;-79
2022/01/23 14:20:57;;;;;;;2.28;0.80;;;18.90;99.90;;;;;;5091499;28;20368;-86
2022/01/23 14:23:24;;;;;;;1.75;0.70;;;19.00;99.90;;;;;;5085176;28;20384;-87
2022/01/23 14:25:53;;;;;;;2.08;0.73;;;18.90;99.90;;;;;;5090760;28;20368;-92
2022/01/23 14:28:35;;;;;;;2.33;1.00;;;18.90;99.90;;;;;;5094633;28;20369;-82
2022/01/23 14:31:20;;;;;;;4.75;0.90;;;18.80;99.90;;;;;;5092077;28;20368;-78
2022/01/23 14:33:51;;;;;;;3.00;0.90;;;18.80;99.90;;;;;;5091489;28;20404;-89
2022/01/23 14:36:21;;;;;;;2.92;1.00;;;18.80;99.90;;;;;;5093737;28;20361;-88
2022/01/23 14:39:00;;;;;;;3.30;1.10;;;18.80;99.90;;;;;;5090544;28;20368;-91
2022/01/23 14:41:33;;;;;;;3.60;1.45;;;18.90;99.90;;;;;;5090354;28;20743;-91
2022/01/23 14:44:02;;;;;;;4.20;1.90;;;18.80;99.90;;;;;;5090548;28;20412;-87
2022/01/23 14:46:29;;;;;;;4.93;1.55;;;18.80;99.90;;;;;;5090416;28;20432;-90
2022/01/23 14:49:00;;;;;;;4.35;1.30;;;18.80;99.90;;;;;;5090380;28;20433;-83
2022/01/23 14:51:34;;;;;;;2.33;1.20;;;18.90;99.90;;;;;;5090312;28;20360;-90
2022/01/23 14:54:02;;;;;;;2.88;1.20;;;18.90;99.90;;;;;;5090538;28;20396;-89
2022/01/23 14:56:31;;;;;;;2.25;1.10;;;18.90;99.90;;;;;;5090103;28;20397;-90
2022/01/23 14:58:58;;;;;;;3.75;1.10;;;19.00;99.90;;;;;;5090093;28;20443;-87
2022/01/23 15:01:25;;;;;;;3.85;1.20;;;18.90;99.90;;;;;;5090011;28;20369;-84
2022/01/23 15:03:52;;;;;;;4.03;1.10;;;18.90;99.90;;;;;;5090102;28;20369;-91
2022/01/23 15:06:22;;;;;;;2.33;0.95;;;18.80;99.90;;;;;;5088640;28;20380;-91
2022/01/23 15:08:52;;;;;;;3.10;1.08;;;18.80;99.90;;;;;;5089908;28;20375;-81
2022/01/23 15:11:19;;;;;;;2.33;1.00;;;18.70;99.90;;;;;;5090079;28;20394;-88
2022/01/23 15:13:46;;;;;;;2.45;1.00;;;18.70;99.90;;;;;;5089777;28;20479;-84
2022/01/23 15:16:13;;;;;;;2.47;0.93;;;18.70;99.90;;;;;;5088467;28;20397;-87
2022/01/23 15:18:40;;;;;;;2.63;1.02;;;18.80;99.90;;;;;;5089675;28;20433;-88
2022/01/23 15:21:07;;;;;;;3.83;1.00;;;18.80;99.90;;;;;;5088322;28;20381;-89
2022/01/23 15:23:34;;;;;;;2.40;0.90;;;18.80;99.90;;;;;;5089807;28;20485;-85
2022/01/23 15:26:01;;;;;;;3.20;1.10;;;18.80;99.90;;;;;;5089652;28;20444;-89
2022/01/23 15:28:28;;;;;;;2.70;1.00;;;18.90;99.90;;;;;;5089567;28;20464;-83
2022/01/23 15:30:55;;;;;;;1.83;0.90;;;19.00;99.90;;;;;;5089487;28;20392;-81
2022/01/23 15:33:22;;;;;;;3.80;1.17;;;19.00;99.90;;;;;;5089369;28;20737;-89
2022/01/23 15:35:49;;;;;;;4.75;1.30;;;19.10;99.90;;;;;;5089290;28;20365;-82
2022/01/23 15:38:19;;;;;;;5.32;1.60;;;19.10;99.90;;;;;;5089257;28;20863;-81
2022/01/23 15:40:47;;;;;;;3.63;1.60;;;19.00;99.90;;;;;;5088962;28;20692;-85
2022/01/23 15:43:14;;;;;;;4.45;1.70;;;19.00;99.90;;;;;;5089039;28;20932;-77
2022/01/23 15:45:45;;;;;;;3.88;1.70;;;18.90;99.90;;;;;;5088992;28;20375;-81
2022/01/23 15:48:12;;;;;;;3.33;1.80;;;18.80;99.90;;;;;;5088976;28;20372;-83
2022/01/23 15:50:39;;;;;;;6.75;2.03;;;18.70;99.90;;;;;;5087374;28;20404;-80
2022/01/23 15:53:07;;;;;;;3.33;1.70;;;18.70;99.90;;;;;;5089048;28;20518;-89
2022/01/23 15:55:34;;;;;;;3.47;2.20;;;18.70;99.90;;;;;;5089014;28;20372;-89
2022/01/23 15:58:01;;;;;;;5.72;2.20;;;18.70;99.90;;;;;;5088863;28;20380;-81
2022/01/23 16:00:28;;;;;;;5.97;2.63;;;18.70;99.90;;;;;;5089065;28;20892;-89
2022/01/23 16:02:55;;;;;;;7.47;2.72;;;18.60;99.90;;;;;;5088779;28;20377;-86
2022/01/23 16:05:22;;;;;;;6.60;2.67;;;18.60;99.90;;;;;;5089099;28;20372;-81
2022/01/23 16:07:49;;;;;;;5.47;2.78;;;18.60;99.90;;;;;;5088839;28;20422;-89
2022/01/23 16:10:16;;;;;;;5.57;2.78;;;18.60;99.90;;;;;;5088716;28;20384;-80
2022/01/23 16:12:43;;;;;;;6.95;2.90;;;18.70;99.90;;;;;;5087400;28;20472;-86
2022/01/23 16:15:15;;;;;;;9.97;3.30;;;18.70;99.90;;;;;;5088662;28;20371;-86
2022/01/23 16:17:43;;;;;;;6.80;2.97;;;18.60;99.90;;;;;;5087414;28;20743;-84
2022/01/23 16:20:12;;;;;;;7.18;3.30;;;18.60;99.90;;;;;;5088582;28;20361;-89
2022/01/23 16:22:39;;;;;;;5.20;2.97;;;18.60;99.90;;;;;;5089180;28;20736;-86
2022/01/23 16:25:08;;;;;;;5.90;3.33;;;18.60;99.90;;;;;;5088554;28;20934;-77